createdAt,value
2023-02-17T00:01:30.246Z,5.72
2023-02-17T00:04:00.090Z,5.53
2023-02-17T00:06:30.324Z,5.45
2023-02-17T00:08:58.049Z,5.35
2023-02-17T00:11:28.299Z,5.78
2023-02-17T00:13:56.401Z,5.05
2023-02-17T00:16:26.142Z,5.47
2023-02-17T00:18:55.227Z,5.00
2023-02-17T00:21:25.951Z,5.70
2023-02-17T00:23:53.353Z,5.20
2023-02-17T00:26:21.246Z,5.40
2023-02-17T00:28:48.865Z,5.40
2023-02-17T00:31:22.932Z,5.00
2023-02-17T00:33:49.965Z,5.22
2023-02-17T00:36:21.531Z,5.93
2023-02-17T00:38:49.304Z,5.10
2023-02-17T00:41:19.417Z,5.75
2023-02-17T00:43:47.179Z,6.45
2023-02-17T00:46:15.003Z,5.15
2023-02-17T00:48:41.840Z,6.10
2023-02-17T00:51:09.017Z,6.75
2023-02-17T00:53:36.183Z,5.43
2023-02-17T00:56:04.325Z,6.03
2023-02-17T00:58:31.117Z,6.28
2023-02-17T01:00:58.629Z,5.00
2023-02-17T01:03:26.751Z,5.85
2023-02-17T01:05:54.551Z,6.18
2023-02-17T01:08:22.672Z,5.72
2023-02-17T01:10:50.580Z,5.88
2023-02-17T01:13:19.116Z,5.80
2023-02-17T01:15:53.514Z,5.30
2023-02-17T01:18:23.472Z,6.13
2023-02-17T01:23:17.400Z,5.70
2023-02-17T01:25:46.806Z,5.10
2023-02-17T01:28:20.117Z,5.83
2023-02-17T01:30:50.249Z,5.82
2023-02-17T01:33:19.658Z,5.90
2023-02-17T01:35:46.326Z,5.38
2023-02-17T01:38:13.289Z,6.65
2023-02-17T01:40:47.373Z,6.15
2023-02-17T01:43:17.696Z,5.45
2023-02-17T01:45:56.380Z,5.30
2023-02-17T01:48:50.393Z,5.10
2023-02-17T01:51:21.793Z,5.55
2023-02-17T01:53:56.815Z,5.22
2023-02-17T01:56:25.294Z,5.63
2023-02-17T01:59:01.148Z,4.97
2023-02-17T02:01:29.968Z,4.55
2023-02-17T02:03:56.817Z,5.28
2023-02-17T02:06:27.303Z,4.55
2023-02-17T02:09:02.994Z,5.15
2023-02-17T02:11:30.130Z,5.03
2023-02-17T02:14:00.042Z,4.70
2023-02-17T02:19:43.603Z,4.90
2023-02-17T02:22:33.952Z,5.07
2023-02-17T02:25:15.010Z,4.70
2023-02-17T02:28:19.092Z,4.40
2023-02-17T02:30:57.128Z,4.35
2023-02-17T02:33:45.117Z,4.05
2023-02-17T02:36:24.091Z,4.10
2023-02-17T02:39:06.415Z,4.40
2023-02-17T02:41:55.959Z,4.72
2023-02-17T02:44:25.046Z,5.57
2023-02-17T02:47:01.929Z,5.00
2023-02-17T02:49:33.563Z,4.95
2023-02-17T02:52:32.978Z,5.70
2023-02-17T02:55:15.604Z,4.93
2023-02-17T02:58:09.247Z,4.65
2023-02-17T03:00:48.905Z,4.50
2023-02-17T03:03:18.914Z,3.83
2023-02-17T03:08:48.929Z,3.90
2023-02-17T03:11:32.167Z,4.25
2023-02-17T03:14:11.627Z,3.78
2023-02-17T03:16:40.363Z,3.35
2023-02-17T03:19:11.474Z,3.20
2023-02-17T03:21:46.510Z,3.30
2023-02-17T03:24:15.596Z,2.97
2023-02-17T03:26:44.462Z,3.17
2023-02-17T03:29:13.431Z,3.22
2023-02-17T03:31:41.336Z,3.75
2023-02-17T03:34:08.421Z,3.50
2023-02-17T03:36:35.133Z,3.70
2023-02-17T03:39:01.922Z,3.90
2023-02-17T03:41:28.619Z,4.38
2023-02-17T03:43:55.585Z,5.15
2023-02-17T03:46:22.312Z,3.97
2023-02-17T03:48:51.333Z,4.10
2023-02-17T03:51:23.636Z,4.03
2023-02-17T03:53:50.633Z,3.83
2023-02-17T03:56:20.369Z,3.42
2023-02-17T03:58:49.655Z,3.70
2023-02-17T04:01:16.381Z,3.50
2023-02-17T04:03:43.302Z,3.63
2023-02-17T04:06:13.406Z,3.97
2023-02-17T04:08:40.797Z,3.75
2023-02-17T04:11:09.657Z,4.00
2023-02-17T04:13:39.884Z,3.75
2023-02-17T04:16:08.127Z,3.47
2023-02-17T04:18:37.866Z,3.67
2023-02-17T04:21:05.809Z,3.97
2023-02-17T04:23:33.986Z,3.65
2023-02-17T04:26:03.400Z,3.88
2023-02-17T04:28:30.224Z,3.55
2023-02-17T04:30:58.645Z,4.03
2023-02-17T04:33:25.856Z,4.10
2023-02-17T04:35:59.299Z,3.13
2023-02-17T04:38:32.949Z,3.58
2023-02-17T04:41:00.926Z,3.85
2023-02-17T04:43:28.898Z,3.67
2023-02-17T04:45:58.647Z,3.78
2023-02-17T04:48:28.532Z,3.53
2023-02-17T04:50:57.504Z,3.90
2023-02-17T04:53:26.777Z,3.50
2023-02-17T04:55:53.594Z,4.07
2023-02-17T04:58:21.108Z,3.90
2023-02-17T05:00:49.580Z,3.65
2023-02-17T05:03:19.616Z,3.53
2023-02-17T05:05:46.668Z,3.53
2023-02-17T05:08:13.352Z,3.70
2023-02-17T05:10:42.246Z,3.17
2023-02-17T05:13:08.998Z,3.00
2023-02-17T05:15:35.813Z,3.17
2023-02-17T05:18:02.861Z,4.00
2023-02-17T05:20:29.662Z,3.67
2023-02-17T05:22:56.336Z,3.38
2023-02-17T05:25:23.014Z,3.10
2023-02-17T05:27:49.677Z,3.88
2023-02-17T05:30:16.490Z,3.83
2023-02-17T05:32:43.249Z,3.60
2023-02-17T05:35:09.981Z,2.63
2023-02-17T05:37:39.066Z,3.10
2023-02-17T05:40:09.527Z,3.20
2023-02-17T05:42:36.218Z,3.97
2023-02-17T05:45:05.381Z,3.50
2023-02-17T05:47:32.054Z,3.15
2023-02-17T05:49:58.702Z,2.92
2023-02-17T05:52:25.340Z,3.65
2023-02-17T05:54:52.101Z,3.08
2023-02-17T05:57:18.803Z,2.83
2023-02-17T05:59:45.441Z,3.90
2023-02-17T06:02:12.093Z,3.03
2023-02-17T06:04:38.878Z,3.30
2023-02-17T06:07:07.945Z,3.40
2023-02-17T06:09:37.016Z,3.10
2023-02-17T06:12:04.210Z,2.90
2023-02-17T06:14:33.256Z,3.25
2023-02-17T06:17:01.119Z,2.93
2023-02-17T06:19:28.380Z,3.10
2023-02-17T06:21:56.979Z,2.90
2023-02-17T06:24:24.787Z,2.63
2023-02-17T06:26:51.480Z,3.17
2023-02-17T06:29:18.166Z,3.05
2023-02-17T06:31:47.117Z,2.90
2023-02-17T06:34:16.353Z,3.50
2023-02-17T06:36:43.016Z,2.60
2023-02-17T06:39:12.074Z,3.58
2023-02-17T06:41:38.774Z,3.30
2023-02-17T06:44:05.573Z,2.97
2023-02-17T06:46:32.232Z,2.85
2023-02-17T06:49:00.076Z,2.53
2023-02-17T06:51:27.207Z,2.78
2023-02-17T06:53:56.276Z,3.13
2023-02-17T06:56:27.562Z,2.63
2023-02-17T06:58:54.248Z,3.13
2023-02-17T07:01:23.547Z,2.70
2023-02-17T07:03:50.256Z,2.83
2023-02-17T07:06:19.480Z,3.10
2023-02-17T07:08:46.349Z,2.97
2023-02-17T07:11:14.694Z,3.17
2023-02-17T07:13:41.963Z,3.25
2023-02-17T07:16:12.726Z,3.28
2023-02-17T07:18:39.912Z,3.05
2023-02-17T07:21:09.870Z,3.15
2023-02-17T07:23:38.019Z,2.50
2023-02-17T07:26:09.562Z,3.08
2023-02-17T07:28:40.078Z,3.30
2023-02-17T07:31:12.479Z,2.90
2023-02-17T07:33:42.422Z,3.42
2023-02-17T07:38:41.653Z,3.20
2023-02-17T07:41:13.892Z,3.28
2023-02-17T07:43:41.181Z,3.72
2023-02-17T07:46:10.017Z,3.30
2023-02-17T07:48:39.888Z,3.33
2023-02-17T07:51:07.549Z,2.95
2023-02-17T07:53:34.844Z,3.75
2023-02-17T07:56:06.865Z,2.95
2023-02-17T07:58:35.214Z,3.05
2023-02-17T08:01:17.374Z,2.38
2023-02-17T08:03:45.000Z,3.17
2023-02-17T08:06:16.727Z,6.78
2023-02-17T08:09:01.999Z,3.70
2023-02-17T08:11:50.106Z,3.40
2023-02-17T08:14:17.323Z,3.20
2023-02-17T08:16:46.313Z,3.33
2023-02-17T08:19:13.179Z,3.30
2023-02-17T08:21:40.012Z,3.30
2023-02-17T08:24:09.048Z,3.25
2023-02-17T08:26:36.153Z,3.13
2023-02-17T08:29:03.193Z,2.97
2023-02-17T08:31:34.489Z,2.65
2023-02-17T08:34:03.927Z,2.95
2023-02-17T08:36:31.117Z,2.78
2023-02-17T08:38:58.508Z,3.33
2023-02-17T08:41:34.629Z,2.60
2023-02-17T08:44:03.983Z,2.97
2023-02-17T08:46:30.917Z,3.28
2023-02-17T08:49:00.124Z,3.67
2023-02-17T08:51:29.282Z,3.08
2023-02-17T08:54:02.607Z,2.67
2023-02-17T08:56:32.129Z,2.45
2023-02-17T08:58:59.981Z,2.60
2023-02-17T09:01:27.748Z,2.67
2023-02-17T09:03:56.338Z,2.50
2023-02-17T09:06:23.876Z,2.53
2023-02-17T09:08:51.444Z,2.42
2023-02-17T09:11:20.794Z,2.13
2023-02-17T09:13:47.940Z,2.08
2023-02-17T09:16:21.678Z,2.45
2023-02-17T09:18:51.289Z,2.30
2023-02-17T09:21:18.888Z,1.80
2023-02-17T09:23:46.124Z,2.00
2023-02-17T09:26:16.917Z,1.92
2023-02-17T09:28:45.251Z,1.98
2023-02-17T09:31:17.061Z,1.60
2023-02-17T09:33:46.659Z,2.08
2023-02-17T09:36:15.727Z,2.42
2023-02-17T09:38:45.545Z,1.80
2023-02-17T09:43:44.946Z,1.63
2023-02-17T09:48:50.838Z,1.67
2023-02-17T09:51:22.103Z,1.50
2023-02-17T09:54:08.292Z,1.80
2023-02-17T09:56:39.750Z,1.67
2023-02-17T09:59:09.355Z,1.23
2023-02-17T10:01:36.714Z,1.70
2023-02-17T10:04:07.816Z,1.48
2023-02-17T10:06:37.509Z,1.50
2023-02-17T10:09:08.259Z,1.38
2023-02-17T10:11:52.440Z,1.65
2023-02-17T10:14:27.283Z,1.35
2023-02-17T10:17:02.420Z,1.50
2023-02-17T10:19:36.379Z,1.30
2023-02-17T10:22:07.140Z,1.20
2023-02-17T10:24:33.861Z,1.02
2023-02-17T10:27:02.638Z,1.10
2023-02-17T10:29:58.432Z,1.25
2023-02-17T10:32:27.324Z,0.95
2023-02-17T10:35:13.094Z,1.07
2023-02-17T10:37:48.436Z,1.10
2023-02-17T10:40:20.581Z,1.33
2023-02-17T10:42:53.192Z,0.90
2023-02-17T10:45:26.394Z,1.13
2023-02-17T10:48:14.538Z,0.82
2023-02-17T10:50:45.735Z,1.10
2023-02-17T10:53:25.383Z,0.98
2023-02-17T10:58:44.018Z,1.00
2023-02-17T11:01:11.934Z,0.88
2023-02-17T11:03:43.148Z,1.08
2023-02-17T11:06:23.324Z,1.20
2023-02-17T11:08:56.284Z,1.02
2023-02-17T11:11:34.508Z,0.98
2023-02-17T11:14:17.997Z,1.02
2023-02-17T11:16:48.178Z,0.88
2023-02-17T11:19:29.571Z,1.00
2023-02-17T11:21:58.762Z,0.82
2023-02-17T11:24:27.556Z,0.88
2023-02-17T11:27:05.723Z,0.70
2023-02-17T11:29:34.105Z,0.95
2023-02-17T11:32:08.721Z,0.70
2023-02-17T11:34:39.122Z,1.10
2023-02-17T11:37:14.038Z,0.85
2023-02-17T11:39:47.848Z,0.63
2023-02-17T11:42:29.665Z,0.70
2023-02-17T11:45:17.304Z,0.95
2023-02-17T11:47:46.933Z,0.73
2023-02-17T11:53:11.497Z,0.82
2023-02-17T11:56:06.459Z,0.85
2023-02-17T11:59:35.045Z,0.82
2023-02-17T12:02:06.869Z,0.60
2023-02-17T12:04:44.320Z,0.52
2023-02-17T12:07:28.123Z,0.63
2023-02-17T12:10:11.990Z,1.08
2023-02-17T12:13:21.537Z,0.70
2023-02-17T12:16:07.180Z,0.70
2023-02-17T12:18:43.019Z,0.60
2023-02-17T12:21:11.188Z,0.50
2023-02-17T12:23:59.347Z,0.50
2023-02-17T12:26:44.054Z,0.70
2023-02-17T12:29:22.471Z,0.60
2023-02-17T12:32:16.765Z,0.70
2023-02-17T12:34:58.952Z,0.70
2023-02-17T12:37:33.751Z,0.75
2023-02-17T12:40:14.733Z,0.75
2023-02-17T12:42:57.843Z,0.70
2023-02-17T12:45:39.672Z,0.50
2023-02-17T12:48:26.877Z,0.90
2023-02-17T12:51:13.795Z,0.60
2023-02-17T12:53:54.968Z,0.60
2023-02-17T12:56:28.426Z,0.50
2023-02-17T12:59:00.748Z,0.60
2023-02-17T13:01:31.960Z,0.50
2023-02-17T13:04:02.708Z,0.60
2023-02-17T13:06:43.142Z,0.60
2023-02-17T13:09:28.443Z,0.70
2023-02-17T13:12:06.691Z,0.43
2023-02-17T13:14:50.583Z,0.50
2023-02-17T13:17:37.926Z,0.60
2023-02-17T13:20:10.754Z,0.70
2023-02-17T13:22:42.137Z,0.98
2023-02-17T13:25:16.564Z,0.50
2023-02-17T13:27:43.342Z,0.60
2023-02-17T13:30:21.957Z,1.17
2023-02-17T13:33:03.104Z,0.50
2023-02-17T13:35:35.616Z,0.55
2023-02-17T13:38:02.574Z,0.80
2023-02-17T13:40:29.541Z,0.63
2023-02-17T13:42:57.640Z,0.70
2023-02-17T13:45:35.302Z,1.10
2023-02-17T13:48:12.722Z,0.88
2023-02-17T13:50:46.043Z,0.70
2023-02-17T13:53:37.851Z,0.90
2023-02-17T13:56:12.506Z,0.80
2023-02-17T13:58:42.327Z,1.02
2023-02-17T14:01:27.125Z,0.88
2023-02-17T14:04:00.126Z,0.70
2023-02-17T14:06:37.349Z,0.80
2023-02-17T14:09:19.999Z,0.75
2023-02-17T14:11:46.884Z,0.90
2023-02-17T14:14:13.879Z,0.80
2023-02-17T14:16:44.164Z,1.10
2023-02-17T14:19:19.951Z,0.82
2023-02-17T14:22:05.474Z,0.60
2023-02-17T14:24:33.539Z,1.10
2023-02-17T14:27:08.655Z,0.98
2023-02-17T14:29:46.830Z,0.73
2023-02-17T14:32:48.562Z,1.27
2023-02-17T14:35:17.601Z,1.30
2023-02-17T14:37:44.307Z,1.00
2023-02-17T14:40:25.782Z,1.10
2023-02-17T14:42:54.724Z,1.00
2023-02-17T14:45:23.517Z,0.85
2023-02-17T14:47:52.449Z,1.00
2023-02-17T14:50:21.310Z,1.00
2023-02-17T14:52:52.411Z,0.83
2023-02-17T14:55:29.431Z,1.17
2023-02-17T14:57:58.300Z,1.27
2023-02-17T15:00:27.444Z,1.17
2023-02-17T15:02:57.160Z,1.08
2023-02-17T15:05:24.172Z,1.10
2023-02-17T15:07:53.537Z,1.10
2023-02-17T15:10:28.526Z,1.38
2023-02-17T15:12:55.905Z,1.30
2023-02-17T15:15:24.844Z,1.48
2023-02-17T15:17:51.540Z,1.25
2023-02-17T15:20:20.554Z,1.33
2023-02-17T15:22:47.246Z,1.48
2023-02-17T15:25:22.235Z,1.80
2023-02-17T15:27:53.766Z,1.15
2023-02-17T15:30:21.362Z,1.20
2023-02-17T15:32:48.285Z,1.20
2023-02-17T15:35:25.210Z,1.40
2023-02-17T15:37:52.789Z,1.58
2023-02-17T15:40:26.057Z,1.15
2023-02-17T15:43:00.134Z,1.67
2023-02-17T15:45:26.879Z,1.42
2023-02-17T15:48:06.255Z,1.55
2023-02-17T15:50:32.985Z,1.77
2023-02-17T15:52:59.717Z,1.50
2023-02-17T15:55:28.257Z,1.75
2023-02-17T15:57:58.354Z,1.50
2023-02-17T16:00:26.388Z,1.67
2023-02-17T16:02:56.647Z,1.35
2023-02-17T16:05:25.691Z,1.30
2023-02-17T16:07:54.995Z,1.42
2023-02-17T16:10:24.184Z,1.40
2023-02-17T16:12:52.095Z,1.60
2023-02-17T16:15:24.802Z,2.45
2023-02-17T16:17:55.610Z,1.95
2023-02-17T16:20:34.726Z,1.70
2023-02-17T16:23:02.684Z,2.22
2023-02-17T16:25:29.645Z,1.67
2023-02-17T16:27:59.983Z,2.15
2023-02-17T16:30:33.601Z,2.13
2023-02-17T16:33:03.014Z,2.00
2023-02-17T16:35:33.442Z,1.88
2023-02-17T16:38:07.287Z,1.42
2023-02-17T16:40:36.304Z,1.30
2023-02-17T16:43:05.615Z,1.77
2023-02-17T16:45:34.341Z,1.45
2023-02-17T16:48:01.968Z,1.70
2023-02-17T16:50:35.295Z,2.03
2023-02-17T16:53:08.638Z,2.10
2023-02-17T16:55:36.511Z,2.08
2023-02-17T16:58:04.482Z,1.67
2023-02-17T17:00:33.073Z,1.88
2023-02-17T17:03:00.036Z,2.83
2023-02-17T17:05:31.381Z,2.00
2023-02-17T17:08:00.258Z,2.70
2023-02-17T17:10:30.661Z,2.05
2023-02-17T17:13:00.622Z,2.40
2023-02-17T17:15:28.176Z,2.33
2023-02-17T17:18:01.325Z,2.20
2023-02-17T17:20:34.153Z,2.30
2023-02-17T17:23:02.961Z,2.45
2023-02-17T17:25:30.766Z,2.35
2023-02-17T17:27:58.003Z,3.00
2023-02-17T17:30:30.648Z,3.10
2023-02-17T17:32:59.901Z,3.25
2023-02-17T17:35:29.953Z,3.30
2023-02-17T17:37:58.641Z,2.90
2023-02-17T17:40:31.336Z,2.40
2023-02-17T17:42:58.084Z,3.08
2023-02-17T17:45:25.497Z,2.03
2023-02-17T17:47:52.276Z,2.03
2023-02-17T17:50:22.697Z,2.45
2023-02-17T17:52:52.451Z,1.95
2023-02-17T17:55:19.307Z,1.60
2023-02-17T17:57:46.098Z,1.90
2023-02-17T18:00:15.389Z,1.90
2023-02-17T18:02:44.517Z,2.00
2023-02-17T18:05:13.395Z,2.38
2023-02-17T18:07:43.984Z,2.33
2023-02-17T18:10:13.176Z,2.22
2023-02-17T18:12:47.547Z,2.30
2023-02-17T18:15:17.167Z,2.20
2023-02-17T18:17:46.818Z,2.72
2023-02-17T18:20:16.115Z,2.13
2023-02-17T18:22:45.380Z,2.05
2023-02-17T18:25:12.613Z,2.60
2023-02-17T18:27:44.391Z,2.25
2023-02-17T18:30:14.870Z,2.40
2023-02-17T18:32:42.876Z,2.00
2023-02-17T18:35:13.556Z,1.90
2023-02-17T18:37:42.717Z,2.25
2023-02-17T18:40:12.556Z,1.98
2023-02-17T18:45:08.878Z,2.28
2023-02-17T18:47:35.703Z,1.75
2023-02-17T18:50:04.585Z,2.00
2023-02-17T18:52:31.229Z,2.22
2023-02-17T18:54:57.918Z,1.90
2023-02-17T18:57:24.813Z,2.00
2023-02-17T18:59:51.584Z,2.05
2023-02-17T19:02:18.389Z,2.05
2023-02-17T19:04:45.118Z,1.60
2023-02-17T19:07:11.933Z,2.10
2023-02-17T19:09:44.329Z,2.45
2023-02-17T19:12:13.661Z,2.20
2023-02-17T19:14:41.097Z,2.05
2023-02-17T19:17:09.439Z,1.80
2023-02-17T19:19:40.786Z,2.03
2023-02-17T19:22:09.470Z,1.85
2023-02-17T19:24:37.354Z,2.20
2023-02-17T19:27:05.241Z,2.00
2023-02-17T19:29:32.228Z,1.92
2023-02-17T19:32:00.247Z,2.13
2023-02-17T19:34:27.946Z,2.28
2023-02-17T19:36:55.338Z,2.17
2023-02-17T19:39:22.183Z,1.83
2023-02-17T19:41:48.985Z,2.03
2023-02-17T19:44:15.671Z,2.00
2023-02-17T19:46:44.666Z,2.08
2023-02-17T19:49:11.386Z,1.60
2023-02-17T19:51:40.721Z,1.85
2023-02-17T19:54:07.401Z,1.70
2023-02-17T19:56:36.236Z,1.80
2023-02-17T19:59:02.964Z,1.77
2023-02-17T20:01:34.628Z,1.70
2023-02-17T20:04:04.575Z,1.83
2023-02-17T20:06:38.127Z,1.60
2023-02-17T20:09:10.569Z,1.75
2023-02-17T20:11:37.688Z,1.60
2023-02-17T20:14:04.960Z,1.75
2023-02-17T20:16:34.380Z,1.83
2023-02-17T20:19:04.317Z,1.80
2023-02-17T20:23:59.902Z,1.63
2023-02-17T20:26:32.944Z,1.65
2023-02-17T20:29:00.560Z,1.80
2023-02-17T20:31:28.073Z,1.80
2023-02-17T20:33:57.548Z,1.60
2023-02-17T20:36:24.999Z,2.13
2023-02-17T20:38:51.995Z,1.90
2023-02-17T20:41:21.078Z,2.00
2023-02-17T20:43:48.896Z,1.98
2023-02-17T20:46:26.621Z,1.77
2023-02-17T20:48:56.680Z,1.80
2023-02-17T20:51:23.958Z,1.70
2023-02-17T20:53:53.244Z,1.83
2023-02-17T20:56:22.763Z,2.08
2023-02-17T20:58:50.828Z,2.05
2023-02-17T21:01:17.904Z,1.98
2023-02-17T21:03:47.151Z,1.88
2023-02-17T21:06:28.589Z,1.85
2023-02-17T21:09:01.252Z,2.08
2023-02-17T21:11:28.837Z,1.90
2023-02-17T21:13:56.079Z,1.83
2023-02-17T21:16:26.203Z,1.65
2023-02-17T21:18:53.417Z,1.80
2023-02-17T21:21:20.670Z,1.77
2023-02-17T21:23:50.052Z,1.70
2023-02-17T21:26:17.650Z,1.90
2023-02-17T21:28:47.717Z,1.40
2023-02-17T21:31:16.388Z,2.00
2023-02-17T21:33:43.390Z,1.88
2023-02-17T21:36:15.348Z,1.65
2023-02-17T21:38:42.476Z,1.80
2023-02-17T21:41:17.781Z,1.95
2023-02-17T21:44:02.970Z,2.33
2023-02-17T21:46:37.348Z,1.65
2023-02-17T21:49:04.159Z,1.98
2023-02-17T21:51:31.017Z,2.17
2023-02-17T21:53:59.162Z,1.95
2023-02-17T21:56:26.591Z,2.42
2023-02-17T21:58:54.954Z,2.70
2023-02-17T22:01:27.027Z,2.63
2023-02-17T22:03:57.675Z,2.25
2023-02-17T22:06:25.962Z,2.53
2023-02-17T22:08:58.518Z,2.50
2023-02-17T22:11:30.925Z,3.00
2023-02-17T22:14:10.156Z,2.75
2023-02-17T22:16:38.224Z,2.10
2023-02-17T22:19:06.945Z,2.60
2023-02-17T22:21:34.054Z,2.47
2023-02-17T22:24:02.131Z,2.35
2023-02-17T22:26:29.737Z,2.10
2023-02-17T22:28:57.125Z,2.35
2023-02-17T22:31:26.366Z,2.33
2023-02-17T22:33:53.645Z,2.45
2023-02-17T22:36:27.349Z,2.47
2023-02-17T22:38:59.762Z,2.40
2023-02-17T22:41:26.443Z,2.40
2023-02-17T22:43:55.792Z,2.40
2023-02-17T22:46:24.450Z,2.47
2023-02-17T22:48:59.975Z,2.30
2023-02-17T22:51:34.252Z,2.28
2023-02-17T22:54:03.319Z,2.22
2023-02-17T22:56:32.985Z,2.30
2023-02-17T22:59:04.295Z,2.20
2023-02-17T23:01:33.318Z,2.20
2023-02-17T23:04:02.836Z,2.13
2023-02-17T23:06:35.890Z,1.98
2023-02-17T23:09:06.822Z,2.20
2023-02-17T23:11:52.246Z,2.05
2023-02-17T23:14:21.948Z,2.30
2023-02-17T23:16:48.789Z,1.80
2023-02-17T23:19:23.006Z,1.88
2023-02-17T23:21:53.878Z,2.10
2023-02-17T23:24:23.808Z,1.90
2023-02-17T23:26:51.443Z,1.98
2023-02-17T23:29:19.022Z,1.80
2023-02-17T23:31:48.052Z,1.77
2023-02-17T23:34:18.209Z,1.83
2023-02-17T23:36:46.368Z,1.60
2023-02-17T23:39:14.701Z,1.60
2023-02-17T23:41:46.446Z,1.42
2023-02-17T23:44:16.124Z,1.70
2023-02-17T23:46:45.917Z,1.25
2023-02-17T23:49:15.035Z,1.40
2023-02-17T23:51:47.144Z,1.33
2023-02-17T23:54:14.622Z,1.30
2023-02-17T23:56:41.543Z,1.40
2023-02-17T23:59:11.601Z,1.40
